sensor_id;sensor_type;location;lat;lon;timestamp;pressure;altitude;pressure_sealevel;temperature;humidity
5777;BME280;2914;42.668;23.346;2023-04-01T00:00:55;93631.49;;;13.85;62.47
5777;BME280;2914;42.668;23.346;2023-04-01T00:03:24;93637.88;;;13.90;62.51
5777;BME280;2914;42.668;23.346;2023-04-01T00:05:56;93635.00;;;13.81;62.92
5777;BME280;2914;42.668;23.346;2023-04-01T00:08:25;93640.97;;;13.68;64.05
5777;BME280;2914;42.668;23.346;2023-04-01T00:10:55;93641.67;;;13.28;66.16
5777;BME280;2914;42.668;23.346;2023-04-01T00:13:25;93639.61;;;13.19;66.30
5777;BME280;2914;42.668;23.346;2023-04-01T00:15:55;93634.95;;;13.21;66.20
5777;BME280;2914;42.668;23.346;2023-04-01T00:18:24;93638.50;;;13.33;65.73
5777;BME280;2914;42.668;23.346;2023-04-01T00:20:54;93638.88;;;13.11;66.87
5777;BME280;2914;42.668;23.346;2023-04-01T00:23:23;93640.47;;;13.16;66.67
5777;BME280;2914;42.668;23.346;2023-04-01T00:25:52;93647.77;;;12.25;69.64
5777;BME280;2914;42.668;23.346;2023-04-01T00:28:21;93646.02;;;12.45;69.19
5777;BME280;2914;42.668;23.346;2023-04-01T00:30:50;93640.25;;;12.64;68.24
5777;BME280;2914;42.668;23.346;2023-04-01T00:33:19;93647.31;;;12.68;68.08
5777;BME280;2914;42.668;23.346;2023-04-01T00:35:48;93648.28;;;12.52;68.89
5777;BME280;2914;42.668;23.346;2023-04-01T00:40:57;93635.38;;;12.53;68.64
5777;BME280;2914;42.668;23.346;2023-04-01T00:43:26;93635.72;;;11.99;71.04
5777;BME280;2914;42.668;23.346;2023-04-01T00:45:56;93636.10;;;12.15;70.86
5777;BME280;2914;42.668;23.346;2023-04-01T00:48:27;93631.25;;;12.27;70.56
5777;BME280;2914;42.668;23.346;2023-04-01T00:51:01;93618.69;;;12.25;70.98
5777;BME280;2914;42.668;23.346;2023-04-01T00:53:32;93609.08;;;12.51;69.71
5777;BME280;2914;42.668;23.346;2023-04-01T00:56:05;93605.36;;;12.42;70.04
5777;BME280;2914;42.668;23.346;2023-04-01T00:58:38;93604.81;;;12.50;69.47
5777;BME280;2914;42.668;23.346;2023-04-01T01:01:09;93600.06;;;12.42;70.18
5777;BME280;2914;42.668;23.346;2023-04-01T01:03:39;93601.78;;;12.34;71.28
5777;BME280;2914;42.668;23.346;2023-04-01T01:09:12;93587.83;;;12.21;72.42
5777;BME280;2914;42.668;23.346;2023-04-01T01:11:43;93596.19;;;12.02;73.62
5777;BME280;2914;42.668;23.346;2023-04-01T01:14:21;93587.07;;;12.09;73.53
5777;BME280;2914;42.668;23.346;2023-04-01T01:16:53;93581.72;;;11.85;74.05
5777;BME280;2914;42.668;23.346;2023-04-01T01:19:39;93575.95;;;11.86;73.72
5777;BME280;2914;42.668;23.346;2023-04-01T01:22:22;93562.74;;;11.86;73.09
5777;BME280;2914;42.668;23.346;2023-04-01T01:25:08;93567.61;;;12.05;72.68
5777;BME280;2914;42.668;23.346;2023-04-01T01:27:40;93562.98;;;12.08;71.82
5777;BME280;2914;42.668;23.346;2023-04-01T01:30:30;93557.61;;;12.20;70.93
5777;BME280;2914;42.668;23.346;2023-04-01T01:33:12;93560.91;;;12.18;70.71
5777;BME280;2914;42.668;23.346;2023-04-01T01:35:44;93555.20;;;12.06;71.13
5777;BME280;2914;42.668;23.346;2023-04-01T01:38:16;93549.89;;;11.83;72.32
5777;BME280;2914;42.668;23.346;2023-04-01T01:40:48;93547.33;;;11.98;72.02
5777;BME280;2914;42.668;23.346;2023-04-01T01:43:23;93546.19;;;12.19;70.94
5777;BME280;2914;42.668;23.346;2023-04-01T01:46:01;93542.73;;;12.19;70.00
5777;BME280;2914;42.668;23.346;2023-04-01T01:48:27;93542.83;;;12.07;70.40
5777;BME280;2914;42.668;23.346;2023-04-01T01:50:58;93544.83;;;12.00;70.37
5777;BME280;2914;42.668;23.346;2023-04-01T01:53:28;93545.04;;;11.95;70.32
5777;BME280;2914;42.668;23.346;2023-04-01T01:55:57;93537.13;;;11.86;70.64
5777;BME280;2914;42.668;23.346;2023-04-01T01:58:28;93534.23;;;12.04;67.46
5777;BME280;2914;42.668;23.346;2023-04-01T02:01:01;93533.58;;;12.07;67.26
5777;BME280;2914;42.668;23.346;2023-04-01T02:03:32;93532.31;;;12.21;67.58
5777;BME280;2914;42.668;23.346;2023-04-01T02:06:04;93529.72;;;12.36;66.88
5777;BME280;2914;42.668;23.346;2023-04-01T02:08:37;93523.67;;;12.47;65.02
5777;BME280;2914;42.668;23.346;2023-04-01T02:11:09;93520.17;;;12.50;64.57
5777;BME280;2914;42.668;23.346;2023-04-01T02:13:42;93524.98;;;12.66;63.81
5777;BME280;2914;42.668;23.346;2023-04-01T02:16:15;93515.88;;;12.68;63.29
5777;BME280;2914;42.668;23.346;2023-04-01T02:18:46;93514.33;;;12.74;62.54
5777;BME280;2914;42.668;23.346;2023-04-01T02:21:19;93511.23;;;12.85;62.43
5777;BME280;2914;42.668;23.346;2023-04-01T02:23:50;93510.13;;;12.80;61.95
5777;BME280;2914;42.668;23.346;2023-04-01T02:26:21;93504.61;;;12.85;62.04
5777;BME280;2914;42.668;23.346;2023-04-01T02:28:52;93509.54;;;13.03;62.06
5777;BME280;2914;42.668;23.346;2023-04-01T02:31:22;93503.30;;;13.15;62.45
5777;BME280;2914;42.668;23.346;2023-04-01T02:33:52;93507.27;;;13.15;62.03
5777;BME280;2914;42.668;23.346;2023-04-01T02:36:22;93512.98;;;13.23;61.61
5777;BME280;2914;42.668;23.346;2023-04-01T02:41:28;93511.54;;;13.35;62.50
5777;BME280;2914;42.668;23.346;2023-04-01T02:46:41;93526.68;;;13.42;62.19
5777;BME280;2914;42.668;23.346;2023-04-01T02:49:10;93513.16;;;13.36;64.19
5777;BME280;2914;42.668;23.346;2023-04-01T02:51:39;93515.97;;;13.35;61.24
5777;BME280;2914;42.668;23.346;2023-04-01T02:54:09;93526.73;;;13.37;61.30
5777;BME280;2914;42.668;23.346;2023-04-01T02:56:38;93531.70;;;13.36;64.95
5777;BME280;2914;42.668;23.346;2023-04-01T02:59:07;93527.75;;;13.32;64.24
5777;BME280;2914;42.668;23.346;2023-04-01T03:01:36;93527.17;;;13.26;62.05
5777;BME280;2914;42.668;23.346;2023-04-01T03:04:05;93544.34;;;13.30;61.08
5777;BME280;2914;42.668;23.346;2023-04-01T03:06:34;93548.87;;;13.11;63.20
5777;BME280;2914;42.668;23.346;2023-04-01T03:09:03;93540.50;;;13.03;63.86
5777;BME280;2914;42.668;23.346;2023-04-01T03:11:32;93544.09;;;13.06;63.81
5777;BME280;2914;42.668;23.346;2023-04-01T03:14:01;93544.42;;;13.07;64.71
5777;BME280;2914;42.668;23.346;2023-04-01T03:16:30;93549.70;;;12.92;65.79
5777;BME280;2914;42.668;23.346;2023-04-01T03:18:59;93540.56;;;12.80;67.51
5777;BME280;2914;42.668;23.346;2023-04-01T03:21:29;93547.69;;;12.79;68.02
5777;BME280;2914;42.668;23.346;2023-04-01T03:23:58;93540.41;;;12.77;68.28
5777;BME280;2914;42.668;23.346;2023-04-01T03:26:27;93539.46;;;12.74;69.01
5777;BME280;2914;42.668;23.346;2023-04-01T03:28:56;93561.73;;;12.80;69.21
5777;BME280;2914;42.668;23.346;2023-04-01T03:31:26;93555.41;;;12.85;69.54
5777;BME280;2914;42.668;23.346;2023-04-01T03:33:55;93561.14;;;12.73;70.55
5777;BME280;2914;42.668;23.346;2023-04-01T03:39:00;93556.66;;;12.74;71.21
5777;BME280;2914;42.668;23.346;2023-04-01T03:41:30;93551.99;;;12.61;71.24
5777;BME280;2914;42.668;23.346;2023-04-01T03:43:59;93555.67;;;12.56;72.18
5777;BME280;2914;42.668;23.346;2023-04-01T03:46:28;93550.97;;;12.62;71.88
5777;BME280;2914;42.668;23.346;2023-04-01T03:48:57;93540.30;;;12.36;73.31
5777;BME280;2914;42.668;23.346;2023-04-01T03:51:26;93523.89;;;12.60;72.51
5777;BME280;2914;42.668;23.346;2023-04-01T03:53:55;93506.58;;;12.72;71.43
5777;BME280;2914;42.668;23.346;2023-04-01T03:56:24;93497.59;;;12.44;72.44
5777;BME280;2914;42.668;23.346;2023-04-01T03:58:54;93488.62;;;12.30;72.97
5777;BME280;2914;42.668;23.346;2023-04-01T04:01:23;93472.17;;;12.38;72.56
5777;BME280;2914;42.668;23.346;2023-04-01T04:03:52;93460.20;;;12.28;72.95
5777;BME280;2914;42.668;23.346;2023-04-01T04:06:22;93449.18;;;12.24;73.49
5777;BME280;2914;42.668;23.346;2023-04-01T04:08:51;93444.41;;;12.38;72.89
5777;BME280;2914;42.668;23.346;2023-04-01T04:11:21;93457.95;;;12.20;71.40
5777;BME280;2914;42.668;23.346;2023-04-01T04:13:51;93442.53;;;12.28;72.61
5777;BME280;2914;42.668;23.346;2023-04-01T04:16:20;93433.28;;;12.28;72.63
5777;BME280;2914;42.668;23.346;2023-04-01T04:18:49;93434.83;;;12.03;73.77
5777;BME280;2914;42.668;23.346;2023-04-01T04:21:19;93434.64;;;12.05;72.53
5777;BME280;2914;42.668;23.346;2023-04-01T04:23:48;93428.18;;;12.08;71.00
5777;BME280;2914;42.668;23.346;2023-04-01T04:26:18;93410.48;;;12.08;69.26
5777;BME280;2914;42.668;23.346;2023-04-01T04:28:47;93425.54;;;12.08;68.64
5777;BME280;2914;42.668;23.346;2023-04-01T04:31:20;93418.86;;;11.93;69.80
5777;BME280;2914;42.668;23.346;2023-04-01T04:33:49;93407.52;;;12.07;69.55
5777;BME280;2914;42.668;23.346;2023-04-01T04:36:19;93405.05;;;12.05;69.76
5777;BME280;2914;42.668;23.346;2023-04-01T04:38:48;93406.38;;;11.82;70.00
5777;BME280;2914;42.668;23.346;2023-04-01T04:41:19;93403.00;;;11.93;69.92
5777;BME280;2914;42.668;23.346;2023-04-01T04:43:53;93393.31;;;12.08;68.97
5777;BME280;2914;42.668;23.346;2023-04-01T04:49:07;93383.07;;;12.39;67.66
5777;BME280;2914;42.668;23.346;2023-04-01T04:51:36;93382.55;;;12.44;67.37
5777;BME280;2914;42.668;23.346;2023-04-01T04:54:06;93382.84;;;12.60;70.09
5777;BME280;2914;42.668;23.346;2023-04-01T04:59:19;93361.63;;;12.79;67.52
5777;BME280;2914;42.668;23.346;2023-04-01T05:01:53;93355.01;;;12.79;66.39
5777;BME280;2914;42.668;23.346;2023-04-01T05:04:23;93367.48;;;12.74;66.72
5777;BME280;2914;42.668;23.346;2023-04-01T05:06:55;93380.00;;;12.76;66.54
5777;BME280;2914;42.668;23.346;2023-04-01T05:09:25;93360.57;;;12.84;79.35
5777;BME280;2914;42.668;23.346;2023-04-01T05:12:19;93358.62;;;12.82;71.48
5777;BME280;2914;42.668;23.346;2023-04-01T05:14:51;93366.52;;;12.86;67.91
5777;BME280;2914;42.668;23.346;2023-04-01T05:17:20;93358.02;;;12.90;66.32
5777;BME280;2914;42.668;23.346;2023-04-01T05:22:33;93357.04;;;13.02;66.39
5777;BME280;2914;42.668;23.346;2023-04-01T05:25:02;93341.83;;;13.00;66.31
5777;BME280;2914;42.668;23.346;2023-04-01T05:27:31;93343.75;;;12.81;67.08
5777;BME280;2914;42.668;23.346;2023-04-01T05:30:00;93337.20;;;12.62;67.67
5777;BME280;2914;42.668;23.346;2023-04-01T05:32:31;93329.17;;;12.70;66.55
5777;BME280;2914;42.668;23.346;2023-04-01T05:35:00;93329.17;;;12.70;66.25
5777;BME280;2914;42.668;23.346;2023-04-01T05:37:29;93325.28;;;12.77;79.74
5777;BME280;2914;42.668;23.346;2023-04-01T05:39:59;93341.53;;;12.73;68.02
5777;BME280;2914;42.668;23.346;2023-04-01T05:42:28;93337.46;;;12.82;66.60
5777;BME280;2914;42.668;23.346;2023-04-01T05:44:58;93338.64;;;12.79;67.01
5777;BME280;2914;42.668;23.346;2023-04-01T05:47:28;93345.28;;;12.64;68.57
5777;BME280;2914;42.668;23.346;2023-04-01T05:49:57;93339.13;;;12.79;67.40
5777;BME280;2914;42.668;23.346;2023-04-01T05:52:27;93330.95;;;12.73;66.84
5777;BME280;2914;42.668;23.346;2023-04-01T05:54:56;93327.86;;;13.28;94.74
5777;BME280;2914;42.668;23.346;2023-04-01T05:57:26;93330.03;;;13.50;72.44
5777;BME280;2914;42.668;23.346;2023-04-01T05:59:55;93319.35;;;13.76;63.70
5777;BME280;2914;42.668;23.346;2023-04-01T06:02:24;93332.19;;;14.01;61.76
5777;BME280;2914;42.668;23.346;2023-04-01T06:05:02;93322.18;;;14.31;61.93
5777;BME280;2914;42.668;23.346;2023-04-01T06:07:25;93312.98;;;14.45;60.77
5777;BME280;2914;42.668;23.346;2023-04-01T06:09:56;93323.21;;;14.65;58.72
5777;BME280;2914;42.668;23.346;2023-04-01T06:15:38;93324.05;;;14.72;57.23
5777;BME280;2914;42.668;23.346;2023-04-01T06:18:29;93327.52;;;14.66;57.21
5777;BME280;2914;42.668;23.346;2023-04-01T06:20:56;93322.42;;;14.54;56.86
5777;BME280;2914;42.668;23.346;2023-04-01T06:23:35;93319.37;;;14.57;56.22
5777;BME280;2914;42.668;23.346;2023-04-01T06:26:17;93314.42;;;14.47;56.50
5777;BME280;2914;42.668;23.346;2023-04-01T06:29:21;93320.12;;;14.44;56.68
5777;BME280;2914;42.668;23.346;2023-04-01T06:35:19;93310.33;;;14.45;57.22
5777;BME280;2914;42.668;23.346;2023-04-01T06:37:59;93280.89;;;14.15;57.36
5777;BME280;2914;42.668;23.346;2023-04-01T06:40:49;93312.53;;;14.34;57.70
5777;BME280;2914;42.668;23.346;2023-04-01T06:43:23;93312.36;;;14.25;58.47
5777;BME280;2914;42.668;23.346;2023-04-01T06:45:55;93312.48;;;14.28;59.30
5777;BME280;2914;42.668;23.346;2023-04-01T06:48:47;93293.95;;;14.17;59.95
5777;BME280;2914;42.668;23.346;2023-04-01T06:51:23;93288.75;;;13.73;62.04
5777;BME280;2914;42.668;23.346;2023-04-01T06:53:56;93286.95;;;13.63;63.57
5777;BME280;2914;42.668;23.346;2023-04-01T06:56:28;93279.40;;;13.60;64.56
5777;BME280;2914;42.668;23.346;2023-04-01T06:58:59;93265.56;;;13.21;66.96
5777;BME280;2914;42.668;23.346;2023-04-01T07:01:32;93271.50;;;13.34;67.11
5777;BME280;2914;42.668;23.346;2023-04-01T07:04:05;93267.36;;;13.47;67.31
5777;BME280;2914;42.668;23.346;2023-04-01T07:06:38;93263.20;;;13.48;67.30
5777;BME280;2914;42.668;23.346;2023-04-01T07:09:10;93262.98;;;13.61;67.04
5777;BME280;2914;42.668;23.346;2023-04-01T07:11:41;93269.86;;;13.33;68.14
5777;BME280;2914;42.668;23.346;2023-04-01T07:14:15;93268.73;;;13.21;68.79
5777;BME280;2914;42.668;23.346;2023-04-01T07:16:47;93272.58;;;13.29;68.86
5777;BME280;2914;42.668;23.346;2023-04-01T07:19:22;93263.94;;;13.42;69.22
5777;BME280;2914;42.668;23.346;2023-04-01T07:24:33;93249.86;;;13.63;68.63
5777;BME280;2914;42.668;23.346;2023-04-01T07:27:03;93276.97;;;13.65;68.69
5777;BME280;2914;42.668;23.346;2023-04-01T07:29:33;93263.84;;;13.68;67.89
5777;BME280;2914;42.668;23.346;2023-04-01T07:32:22;93264.02;;;13.77;67.57
5777;BME280;2914;42.668;23.346;2023-04-01T07:35:04;93270.25;;;13.80;68.16
5777;BME280;2914;42.668;23.346;2023-04-01T07:40:26;93263.60;;;13.91;68.61
5777;BME280;2914;42.668;23.346;2023-04-01T07:43:04;93267.53;;;13.84;69.09
5777;BME280;2914;42.668;23.346;2023-04-01T07:45:36;93266.89;;;13.93;69.21
5777;BME280;2914;42.668;23.346;2023-04-01T07:48:15;93259.70;;;13.87;69.77
5777;BME280;2914;42.668;23.346;2023-04-01T07:50:48;93262.13;;;13.99;69.98
5777;BME280;2914;42.668;23.346;2023-04-01T07:53:21;93245.45;;;14.05;69.96
5777;BME280;2914;42.668;23.346;2023-04-01T07:55:54;93234.53;;;14.04;69.35
5777;BME280;2914;42.668;23.346;2023-04-01T07:58:27;93245.26;;;14.07;68.97
5777;BME280;2914;42.668;23.346;2023-04-01T08:00:59;93248.52;;;14.09;68.98
5777;BME280;2914;42.668;23.346;2023-04-01T08:03:38;93247.11;;;14.13;68.90
5777;BME280;2914;42.668;23.346;2023-04-01T08:06:11;93241.33;;;14.20;68.93
5777;BME280;2914;42.668;23.346;2023-04-01T08:08:48;93243.98;;;14.20;69.23
5777;BME280;2914;42.668;23.346;2023-04-01T08:11:24;93243.25;;;14.16;68.76
5777;BME280;2914;42.668;23.346;2023-04-01T08:13:57;93235.73;;;14.19;69.22
5777;BME280;2914;42.668;23.346;2023-04-01T08:16:30;93216.77;;;14.22;69.16
5777;BME280;2914;42.668;23.346;2023-04-01T08:19:03;93221.67;;;14.25;68.46
5777;BME280;2914;42.668;23.346;2023-04-01T08:21:35;93216.20;;;14.34;67.91
5777;BME280;2914;42.668;23.346;2023-04-01T08:24:11;93211.70;;;14.28;67.66
5777;BME280;2914;42.668;23.346;2023-04-01T08:26:42;93205.39;;;14.35;67.63
5777;BME280;2914;42.668;23.346;2023-04-01T08:29:15;93202.65;;;14.39;66.38
5777;BME280;2914;42.668;23.346;2023-04-01T08:31:48;93200.75;;;14.44;66.39
5777;BME280;2914;42.668;23.346;2023-04-01T08:34:20;93201.47;;;14.49;65.91
5777;BME280;2914;42.668;23.346;2023-04-01T08:36:52;93185.28;;;14.61;66.80
5777;BME280;2914;42.668;23.346;2023-04-01T08:39:27;93161.88;;;14.71;64.98
5777;BME280;2914;42.668;23.346;2023-04-01T08:48:14;93150.53;;;14.73;64.73
5777;BME280;2914;42.668;23.346;2023-04-01T08:51:10;93151.77;;;14.78;64.69
5777;BME280;2914;42.668;23.346;2023-04-01T08:53:52;93140.52;;;14.82;64.78
5777;BME280;2914;42.668;23.346;2023-04-01T08:56:25;93138.41;;;14.88;64.23
5777;BME280;2914;42.668;23.346;2023-04-01T09:02:02;93139.34;;;15.18;64.49
5777;BME280;2914;42.668;23.346;2023-04-01T09:04:42;93147.17;;;15.36;61.95
5777;BME280;2914;42.668;23.346;2023-04-01T09:07:24;93160.24;;;15.44;61.63
5777;BME280;2914;42.668;23.346;2023-04-01T09:10:25;93151.95;;;15.56;60.78
5777;BME280;2914;42.668;23.346;2023-04-01T09:13:11;93153.59;;;15.64;58.85
5777;BME280;2914;42.668;23.346;2023-04-01T09:16:11;93147.58;;;15.59;57.99
5777;BME280;2914;42.668;23.346;2023-04-01T09:18:50;93151.14;;;15.63;57.08
5777;BME280;2914;42.668;23.346;2023-04-01T09:21:31;93140.99;;;15.69;55.55
5777;BME280;2914;42.668;23.346;2023-04-01T09:27:06;93145.80;;;15.76;54.17
5777;BME280;2914;42.668;23.346;2023-04-01T09:35:24;93121.99;;;15.72;52.04
5777;BME280;2914;42.668;23.346;2023-04-01T09:38:00;93116.16;;;15.72;50.65
5777;BME280;2914;42.668;23.346;2023-04-01T09:40:37;93114.52;;;15.71;51.03
5777;BME280;2914;42.668;23.346;2023-04-01T09:43:28;93114.10;;;15.81;51.17
5777;BME280;2914;42.668;23.346;2023-04-01T09:46:18;93111.64;;;15.86;51.63
5777;BME280;2914;42.668;23.346;2023-04-01T09:49:02;93109.08;;;15.89;51.38
5777;BME280;2914;42.668;23.346;2023-04-01T09:51:36;93092.21;;;15.79;52.06
5777;BME280;2914;42.668;23.346;2023-04-01T09:54:30;93098.98;;;15.82;52.23
5777;BME280;2914;42.668;23.346;2023-04-01T09:57:36;93080.56;;;15.87;52.21
5777;BME280;2914;42.668;23.346;2023-04-01T10:00:21;93065.11;;;15.86;51.39
5777;BME280;2914;42.668;23.346;2023-04-01T10:06:22;93058.60;;;16.05;50.94
5777;BME280;2914;42.668;23.346;2023-04-01T10:12:35;93067.94;;;15.98;52.48
5777;BME280;2914;42.668;23.346;2023-04-01T10:15:43;93072.11;;;16.03;52.72
5777;BME280;2914;42.668;23.346;2023-04-01T10:34:26;93043.57;;;16.01;55.51
5777;BME280;2914;42.668;23.346;2023-04-01T10:36:57;93040.26;;;15.90;55.51
5777;BME280;2914;42.668;23.346;2023-04-01T10:43:07;93038.73;;;15.85;55.05
5777;BME280;2914;42.668;23.346;2023-04-01T10:45:50;93019.87;;;15.70;55.77
5777;BME280;2914;42.668;23.346;2023-04-01T10:52:05;93013.72;;;15.70;56.31
5777;BME280;2914;42.668;23.346;2023-04-01T10:54:46;93020.13;;;15.78;56.34
5777;BME280;2914;42.668;23.346;2023-04-01T11:01:05;93001.83;;;15.86;55.86
5777;BME280;2914;42.668;23.346;2023-04-01T11:03:55;92994.88;;;15.85;54.94
5777;BME280;2914;42.668;23.346;2023-04-01T11:13:10;92987.82;;;15.81;55.79
5777;BME280;2914;42.668;23.346;2023-04-01T11:19:03;92976.23;;;15.91;54.53
5777;BME280;2914;42.668;23.346;2023-04-01T11:33:33;93005.67;;;16.28;48.14
5777;BME280;2914;42.668;23.346;2023-04-01T11:36:12;93027.13;;;16.34;48.25
5777;BME280;2914;42.668;23.346;2023-04-01T11:41:45;93045.05;;;16.29;53.43
5777;BME280;2914;42.668;23.346;2023-04-01T11:44:18;93054.45;;;16.16;52.69
5777;BME280;2914;42.668;23.346;2023-04-01T11:47:02;93093.55;;;16.08;52.39
5777;BME280;2914;42.668;23.346;2023-04-01T11:49:40;93086.74;;;16.03;59.06
5777;BME280;2914;42.668;23.346;2023-04-01T11:52:16;93137.00;;;15.69;66.46
5777;BME280;2914;42.668;23.346;2023-04-01T11:58:14;93197.27;;;14.68;84.73
5777;BME280;2914;42.668;23.346;2023-04-01T12:04:04;93214.64;;;13.87;95.29
5777;BME280;2914;42.668;23.346;2023-04-01T12:06:35;93234.22;;;13.68;97.20
5777;BME280;2914;42.668;23.346;2023-04-01T12:09:09;93233.55;;;13.38;98.32
5777;BME280;2914;42.668;23.346;2023-04-01T12:11:43;93209.41;;;13.26;98.29
5777;BME280;2914;42.668;23.346;2023-04-01T12:14:16;93197.19;;;13.14;98.61
5777;BME280;2914;42.668;23.346;2023-04-01T12:17:00;93210.67;;;12.87;100.00
5777;BME280;2914;42.668;23.346;2023-04-01T12:19:35;93210.74;;;12.94;100.00
5777;BME280;2914;42.668;23.346;2023-04-01T12:22:17;93211.39;;;13.06;100.00
5777;BME280;2914;42.668;23.346;2023-04-01T12:24:51;93219.63;;;13.07;100.00
5777;BME280;2914;42.668;23.346;2023-04-01T12:30:41;93214.14;;;13.42;100.00
5777;BME280;2914;42.668;23.346;2023-04-01T12:36:32;93216.50;;;13.58;100.00
5777;BME280;2914;42.668;23.346;2023-04-01T12:42:23;93223.13;;;13.58;100.00
5777;BME280;2914;42.668;23.346;2023-04-01T12:45:14;93220.94;;;13.51;100.00
5777;BME280;2914;42.668;23.346;2023-04-01T12:54:07;93222.98;;;13.05;100.00
5777;BME280;2914;42.668;23.346;2023-04-01T12:56:41;93224.66;;;13.24;100.00
5777;BME280;2914;42.668;23.346;2023-04-01T12:59:57;93222.65;;;12.83;100.00
5777;BME280;2914;42.668;23.346;2023-04-01T13:05:22;93212.55;;;12.61;100.00
5777;BME280;2914;42.668;23.346;2023-04-01T13:08:00;93197.34;;;12.73;100.00
5777;BME280;2914;42.668;23.346;2023-04-01T13:10:44;93177.44;;;12.78;100.00
5777;BME280;2914;42.668;23.346;2023-04-01T13:18:39;93148.16;;;12.97;100.00
5777;BME280;2914;42.668;23.346;2023-04-01T13:23:55;93141.37;;;13.27;100.00
5777;BME280;2914;42.668;23.346;2023-04-01T13:29:14;93136.37;;;13.49;96.29
5777;BME280;2914;42.668;23.346;2023-04-01T13:31:52;93139.55;;;13.55;98.39
5777;BME280;2914;42.668;23.346;2023-04-01T13:34:32;93140.08;;;13.79;99.68
5777;BME280;2914;42.668;23.346;2023-04-01T13:43:11;93117.16;;;14.06;97.66
5777;BME280;2914;42.668;23.346;2023-04-01T13:46:04;93110.78;;;14.18;93.43
5777;BME280;2914;42.668;23.346;2023-04-01T13:48:33;93100.61;;;14.22;87.55
5777;BME280;2914;42.668;23.346;2023-04-01T13:54:08;93090.36;;;14.50;86.02
5777;BME280;2914;42.668;23.346;2023-04-01T13:59:43;93095.05;;;14.54;87.82
5777;BME280;2914;42.668;23.346;2023-04-01T14:02:28;93095.06;;;14.61;85.74
5777;BME280;2914;42.668;23.346;2023-04-01T14:05:09;93080.50;;;14.68;82.85
5777;BME280;2914;42.668;23.346;2023-04-01T14:07:49;93075.52;;;14.69;83.09
5777;BME280;2914;42.668;23.346;2023-04-01T14:13:01;93065.19;;;14.83;81.67
5777;BME280;2914;42.668;23.346;2023-04-01T14:18:46;93069.23;;;14.46;88.01
5777;BME280;2914;42.668;23.346;2023-04-01T14:24:19;93050.94;;;14.27;92.80
5777;BME280;2914;42.668;23.346;2023-04-01T14:35:40;93039.61;;;13.84;91.83
5777;BME280;2914;42.668;23.346;2023-04-01T14:41:12;93028.06;;;13.74;92.56
5777;BME280;2914;42.668;23.346;2023-04-01T14:50:09;93035.34;;;13.59;96.42
5777;BME280;2914;42.668;23.346;2023-04-01T14:52:42;93033.92;;;13.39;97.87
5777;BME280;2914;42.668;23.346;2023-04-01T14:58:22;93023.38;;;13.35;97.38
5777;BME280;2914;42.668;23.346;2023-04-01T15:01:11;93025.77;;;13.40;96.43
5777;BME280;2914;42.668;23.346;2023-04-01T15:03:45;93025.58;;;13.42;96.93
5777;BME280;2914;42.668;23.346;2023-04-01T15:06:40;93030.70;;;13.44;97.06
5777;BME280;2914;42.668;23.346;2023-04-01T15:09:15;93034.19;;;13.51;97.21
5777;BME280;2914;42.668;23.346;2023-04-01T15:11:52;93042.37;;;13.63;96.60
5777;BME280;2914;42.668;23.346;2023-04-01T15:14:31;93046.26;;;13.60;96.56
5777;BME280;2914;42.668;23.346;2023-04-01T15:17:14;93054.38;;;13.52;96.25
5777;BME280;2914;42.668;23.346;2023-04-01T15:19:53;93046.88;;;13.45;97.16
5777;BME280;2914;42.668;23.346;2023-04-01T15:22:38;93053.73;;;13.50;97.17
5777;BME280;2914;42.668;23.346;2023-04-01T15:25:33;93047.67;;;13.56;96.22
5777;BME280;2914;42.668;23.346;2023-04-01T15:28:06;93045.91;;;13.52;95.52
5777;BME280;2914;42.668;23.346;2023-04-01T15:30:38;93034.51;;;13.52;95.42
5777;BME280;2914;42.668;23.346;2023-04-01T15:33:27;93049.34;;;13.70;94.66
5777;BME280;2914;42.668;23.346;2023-04-01T15:36:02;93048.08;;;13.84;94.25
5777;BME280;2914;42.668;23.346;2023-04-01T15:38:36;93053.46;;;13.80;93.09
5777;BME280;2914;42.668;23.346;2023-04-01T15:41:13;93041.65;;;13.82;92.40
5777;BME280;2914;42.668;23.346;2023-04-01T15:43:44;93055.44;;;13.95;91.60
5777;BME280;2914;42.668;23.346;2023-04-01T15:46:27;93058.44;;;14.03;91.30
5777;BME280;2914;42.668;23.346;2023-04-01T15:49:06;93066.09;;;14.08;90.81
5777;BME280;2914;42.668;23.346;2023-04-01T15:54:59;93180.75;;;14.00;91.01
5777;BME280;2914;42.668;23.346;2023-04-01T16:00:31;93294.66;;;12.52;83.04
5777;BME280;2914;42.668;23.346;2023-04-01T16:03:22;93293.05;;;12.07;86.91
5777;BME280;2914;42.668;23.346;2023-04-01T16:06:07;93292.45;;;11.66;90.25
5777;BME280;2914;42.668;23.346;2023-04-01T16:08:58;93304.84;;;11.43;94.33
5777;BME280;2914;42.668;23.346;2023-04-01T16:11:34;93276.98;;;10.75;98.35
5777;BME280;2914;42.668;23.346;2023-04-01T16:14:13;93296.98;;;10.65;100.00
5777;BME280;2914;42.668;23.346;2023-04-01T16:16:53;93304.36;;;10.26;100.00
5777;BME280;2914;42.668;23.346;2023-04-01T16:19:36;93296.47;;;10.22;100.00
5777;BME280;2914;42.668;23.346;2023-04-01T16:22:09;93304.42;;;10.09;100.00
5777;BME280;2914;42.668;23.346;2023-04-01T16:24:43;93308.66;;;10.23;100.00
5777;BME280;2914;42.668;23.346;2023-04-01T16:27:16;93328.59;;;10.25;100.00
5777;BME280;2914;42.668;23.346;2023-04-01T16:29:49;93332.25;;;10.12;100.00
5777;BME280;2914;42.668;23.346;2023-04-01T16:32:29;93335.89;;;9.98;100.00
5777;BME280;2914;42.668;23.346;2023-04-01T16:37:54;93326.47;;;10.12;100.00
5777;BME280;2914;42.668;23.346;2023-04-01T16:40:35;93349.22;;;10.05;100.00
5777;BME280;2914;42.668;23.346;2023-04-01T16:48:59;93356.98;;;9.94;100.00
5777;BME280;2914;42.668;23.346;2023-04-01T16:51:37;93356.98;;;9.94;100.00
5777;BME280;2914;42.668;23.346;2023-04-01T16:54:13;93341.20;;;9.78;100.00
5777;BME280;2914;42.668;23.346;2023-04-01T16:56:44;93341.20;;;9.78;100.00
5777;BME280;2914;42.668;23.346;2023-04-01T16:59:21;93323.61;;;9.78;100.00
5777;BME280;2914;42.668;23.346;2023-04-01T17:01:53;93327.75;;;9.60;100.00
5777;BME280;2914;42.668;23.346;2023-04-01T17:04:30;93338.42;;;9.63;100.00
5777;BME280;2914;42.668;23.346;2023-04-01T17:07:04;93338.42;;;9.63;100.00
5777;BME280;2914;42.668;23.346;2023-04-01T17:09:45;93335.65;;;9.60;100.00
5777;BME280;2914;42.668;23.346;2023-04-01T17:12:18;93338.59;;;9.61;100.00
5777;BME280;2914;42.668;23.346;2023-04-01T17:14:51;93341.89;;;9.59;100.00